sensor_id;sensor_type;location;lat;lon;timestamp;P1;durP1;ratioP1;P2;durP2;ratioP2
34960;SDS011;30789;52.030;7.110;2023-02-27T00:00:04;3.75;;;1.83;;
34960;SDS011;30789;52.030;7.110;2023-02-27T00:02:38;3.38;;;1.42;;
34960;SDS011;30789;52.030;7.110;2023-02-27T00:05:05;1.60;;;1.50;;
34960;SDS011;30789;52.030;7.110;2023-02-27T00:07:31;4.43;;;2.03;;
34960;SDS011;30789;52.030;7.110;2023-02-27T00:09:59;1.33;;;1.23;;
34960;SDS011;30789;52.030;7.110;2023-02-27T00:12:25;2.53;;;1.17;;
34960;SDS011;30789;52.030;7.110;2023-02-27T00:14:51;2.40;;;1.33;;
34960;SDS011;30789;52.030;7.110;2023-02-27T00:17:18;1.88;;;1.55;;
34960;SDS011;30789;52.030;7.110;2023-02-27T00:19:44;2.90;;;1.40;;
34960;SDS011;30789;52.030;7.110;2023-02-27T00:22:10;1.70;;;1.42;;
34960;SDS011;30789;52.030;7.110;2023-02-27T00:24:36;2.03;;;1.20;;
34960;SDS011;30789;52.030;7.110;2023-02-27T00:27:04;4.32;;;1.60;;
34960;SDS011;30789;52.030;7.110;2023-02-27T00:29:30;1.92;;;1.40;;
34960;SDS011;30789;52.030;7.110;2023-02-27T00:31:56;4.10;;;1.65;;
34960;SDS011;30789;52.030;7.110;2023-02-27T00:34:24;1.02;;;0.95;;
34960;SDS011;30789;52.030;7.110;2023-02-27T00:36:50;1.98;;;1.05;;
34960;SDS011;30789;52.030;7.110;2023-02-27T00:39:16;2.08;;;1.42;;
34960;SDS011;30789;52.030;7.110;2023-02-27T00:41:43;4.53;;;1.77;;
34960;SDS011;30789;52.030;7.110;2023-02-27T00:44:10;2.85;;;1.40;;
34960;SDS011;30789;52.030;7.110;2023-02-27T00:46:37;1.50;;;1.38;;
34960;SDS011;30789;52.030;7.110;2023-02-27T00:49:03;2.28;;;1.17;;
34960;SDS011;30789;52.030;7.110;2023-02-27T00:51:29;4.45;;;1.88;;
34960;SDS011;30789;52.030;7.110;2023-02-27T00:53:55;2.35;;;1.10;;
34960;SDS011;30789;52.030;7.110;2023-02-27T00:56:22;3.88;;;1.58;;
34960;SDS011;30789;52.030;7.110;2023-02-27T00:58:48;1.40;;;1.30;;
34960;SDS011;30789;52.030;7.110;2023-02-27T01:01:15;1.77;;;1.33;;
34960;SDS011;30789;52.030;7.110;2023-02-27T01:03:42;1.80;;;1.33;;
34960;SDS011;30789;52.030;7.110;2023-02-27T01:06:08;1.88;;;1.13;;
34960;SDS011;30789;52.030;7.110;2023-02-27T01:08:34;3.53;;;1.73;;
34960;SDS011;30789;52.030;7.110;2023-02-27T01:11:01;4.90;;;1.65;;
34960;SDS011;30789;52.030;7.110;2023-02-27T01:13:27;1.15;;;1.05;;
34960;SDS011;30789;52.030;7.110;2023-02-27T01:15:53;1.27;;;1.17;;
34960;SDS011;30789;52.030;7.110;2023-02-27T01:18:21;1.30;;;1.20;;
34960;SDS011;30789;52.030;7.110;2023-02-27T01:20:50;2.40;;;1.08;;
34960;SDS011;30789;52.030;7.110;2023-02-27T01:23:16;0.93;;;0.90;;
34960;SDS011;30789;52.030;7.110;2023-02-27T01:25:42;2.63;;;1.15;;
34960;SDS011;30789;52.030;7.110;2023-02-27T01:28:09;4.25;;;1.35;;
34960;SDS011;30789;52.030;7.110;2023-02-27T01:30:35;3.05;;;1.40;;
34960;SDS011;30789;52.030;7.110;2023-02-27T01:33:01;1.63;;;0.95;;
34960;SDS011;30789;52.030;7.110;2023-02-27T01:35:29;2.05;;;1.30;;
34960;SDS011;30789;52.030;7.110;2023-02-27T01:37:55;1.65;;;1.10;;
34960;SDS011;30789;52.030;7.110;2023-02-27T01:40:21;4.78;;;1.50;;
34960;SDS011;30789;52.030;7.110;2023-02-27T01:42:48;2.55;;;1.33;;
34960;SDS011;30789;52.030;7.110;2023-02-27T01:45:28;3.25;;;1.30;;
34960;SDS011;30789;52.030;7.110;2023-02-27T01:47:57;4.65;;;2.47;;
34960;SDS011;30789;52.030;7.110;2023-02-27T01:50:25;6.70;;;1.52;;
34960;SDS011;30789;52.030;7.110;2023-02-27T01:52:53;4.07;;;1.92;;
34960;SDS011;30789;52.030;7.110;2023-02-27T01:55:21;1.25;;;1.00;;
34960;SDS011;30789;52.030;7.110;2023-02-27T01:57:48;4.10;;;1.40;;
34960;SDS011;30789;52.030;7.110;2023-02-27T02:00:15;2.97;;;1.77;;
34960;SDS011;30789;52.030;7.110;2023-02-27T02:02:43;4.82;;;1.85;;
34960;SDS011;30789;52.030;7.110;2023-02-27T02:05:11;1.85;;;1.55;;
34960;SDS011;30789;52.030;7.110;2023-02-27T02:07:38;1.65;;;1.23;;
34960;SDS011;30789;52.030;7.110;2023-02-27T02:10:07;3.88;;;1.55;;
34960;SDS011;30789;52.030;7.110;2023-02-27T02:12:36;1.88;;;1.40;;
34960;SDS011;30789;52.030;7.110;2023-02-27T02:15:03;3.92;;;1.88;;
34960;SDS011;30789;52.030;7.110;2023-02-27T02:17:31;1.33;;;1.23;;
34960;SDS011;30789;52.030;7.110;2023-02-27T02:20:23;2.50;;;1.35;;
34960;SDS011;30789;52.030;7.110;2023-02-27T02:23:04;2.05;;;1.42;;
34960;SDS011;30789;52.030;7.110;2023-02-27T02:25:55;1.58;;;1.35;;
34960;SDS011;30789;52.030;7.110;2023-02-27T02:28:36;1.77;;;1.58;;
34960;SDS011;30789;52.030;7.110;2023-02-27T02:31:21;3.38;;;1.98;;
34960;SDS011;30789;52.030;7.110;2023-02-27T02:37:02;5.35;;;2.65;;
34960;SDS011;30789;52.030;7.110;2023-02-27T02:39:47;3.33;;;1.98;;
34960;SDS011;30789;52.030;7.110;2023-02-27T02:42:19;2.55;;;1.58;;
34960;SDS011;30789;52.030;7.110;2023-02-27T02:44:49;2.78;;;1.83;;
34960;SDS011;30789;52.030;7.110;2023-02-27T02:47:19;1.63;;;1.02;;
34960;SDS011;30789;52.030;7.110;2023-02-27T02:49:49;3.30;;;1.42;;
34960;SDS011;30789;52.030;7.110;2023-02-27T02:52:19;2.65;;;1.10;;
34960;SDS011;30789;52.030;7.110;2023-02-27T02:54:51;2.90;;;1.77;;
34960;SDS011;30789;52.030;7.110;2023-02-27T02:57:22;2.25;;;1.38;;
34960;SDS011;30789;52.030;7.110;2023-02-27T02:59:52;3.00;;;1.50;;
34960;SDS011;30789;52.030;7.110;2023-02-27T03:02:20;2.13;;;1.65;;
34960;SDS011;30789;52.030;7.110;2023-02-27T03:04:48;4.60;;;1.30;;
34960;SDS011;30789;52.030;7.110;2023-02-27T03:07:18;14.20;;;3.33;;
34960;SDS011;30789;52.030;7.110;2023-02-27T03:09:47;10.30;;;4.57;;
34960;SDS011;30789;52.030;7.110;2023-02-27T03:12:17;7.05;;;3.35;;
34960;SDS011;30789;52.030;7.110;2023-02-27T03:14:45;6.63;;;3.70;;
34960;SDS011;30789;52.030;7.110;2023-02-27T03:17:13;17.60;;;5.75;;
34960;SDS011;30789;52.030;7.110;2023-02-27T03:19:43;9.10;;;4.53;;
34960;SDS011;30789;52.030;7.110;2023-02-27T03:22:12;5.38;;;3.63;;
34960;SDS011;30789;52.030;7.110;2023-02-27T03:24:42;3.38;;;2.47;;
34960;SDS011;30789;52.030;7.110;2023-02-27T03:27:10;4.03;;;1.95;;
34960;SDS011;30789;52.030;7.110;2023-02-27T03:29:39;2.58;;;1.90;;
34960;SDS011;30789;52.030;7.110;2023-02-27T03:32:08;2.03;;;1.80;;
34960;SDS011;30789;52.030;7.110;2023-02-27T03:34:36;2.38;;;1.67;;
34960;SDS011;30789;52.030;7.110;2023-02-27T03:37:05;2.17;;;1.67;;
34960;SDS011;30789;52.030;7.110;2023-02-27T03:39:36;5.72;;;1.83;;
34960;SDS011;30789;52.030;7.110;2023-02-27T03:42:07;2.83;;;1.60;;
34960;SDS011;30789;52.030;7.110;2023-02-27T03:44:37;4.63;;;1.65;;
34960;SDS011;30789;52.030;7.110;2023-02-27T03:47:06;2.63;;;1.58;;
34960;SDS011;30789;52.030;7.110;2023-02-27T03:49:32;2.65;;;1.50;;
34960;SDS011;30789;52.030;7.110;2023-02-27T03:51:58;2.92;;;1.73;;
34960;SDS011;30789;52.030;7.110;2023-02-27T03:54:26;2.35;;;1.52;;
34960;SDS011;30789;52.030;7.110;2023-02-27T03:56:53;4.93;;;1.75;;
34960;SDS011;30789;52.030;7.110;2023-02-27T03:59:22;2.60;;;1.63;;
34960;SDS011;30789;52.030;7.110;2023-02-27T04:01:49;2.30;;;1.50;;
34960;SDS011;30789;52.030;7.110;2023-02-27T04:04:17;1.95;;;1.38;;
34960;SDS011;30789;52.030;7.110;2023-02-27T04:06:44;3.35;;;1.25;;
34960;SDS011;30789;52.030;7.110;2023-02-27T04:09:33;2.17;;;1.38;;
34960;SDS011;30789;52.030;7.110;2023-02-27T04:12:07;5.45;;;1.48;;
34960;SDS011;30789;52.030;7.110;2023-02-27T04:14:43;3.35;;;1.35;;
34960;SDS011;30789;52.030;7.110;2023-02-27T04:17:15;2.15;;;1.67;;
34960;SDS011;30789;52.030;7.110;2023-02-27T04:19:51;1.90;;;1.55;;
34960;SDS011;30789;52.030;7.110;2023-02-27T04:22:25;1.85;;;1.25;;
34960;SDS011;30789;52.030;7.110;2023-02-27T04:24:56;2.80;;;1.85;;
34960;SDS011;30789;52.030;7.110;2023-02-27T04:27:27;1.50;;;1.40;;
34960;SDS011;30789;52.030;7.110;2023-02-27T04:29:56;3.33;;;1.48;;
34960;SDS011;30789;52.030;7.110;2023-02-27T04:32:29;4.57;;;1.83;;
34960;SDS011;30789;52.030;7.110;2023-02-27T04:34:58;2.10;;;1.25;;
34960;SDS011;30789;52.030;7.110;2023-02-27T04:37:26;5.13;;;1.83;;
34960;SDS011;30789;52.030;7.110;2023-02-27T04:39:55;2.25;;;1.17;;
34960;SDS011;30789;52.030;7.110;2023-02-27T04:42:23;1.30;;;1.17;;
34960;SDS011;30789;52.030;7.110;2023-02-27T04:44:50;3.85;;;1.73;;
34960;SDS011;30789;52.030;7.110;2023-02-27T04:47:20;1.77;;;1.50;;
34960;SDS011;30789;52.030;7.110;2023-02-27T04:49:49;1.48;;;1.17;;
34960;SDS011;30789;52.030;7.110;2023-02-27T04:52:19;1.73;;;1.20;;
34960;SDS011;30789;52.030;7.110;2023-02-27T04:54:48;3.95;;;1.88;;
34960;SDS011;30789;52.030;7.110;2023-02-27T04:57:15;6.18;;;1.50;;
34960;SDS011;30789;52.030;7.110;2023-02-27T04:59:43;2.03;;;1.50;;
34960;SDS011;30789;52.030;7.110;2023-02-27T05:02:13;3.22;;;1.83;;
34960;SDS011;30789;52.030;7.110;2023-02-27T05:04:41;1.65;;;1.55;;
34960;SDS011;30789;52.030;7.110;2023-02-27T05:07:10;4.00;;;1.73;;
34960;SDS011;30789;52.030;7.110;2023-02-27T05:09:39;3.70;;;1.85;;
34960;SDS011;30789;52.030;7.110;2023-02-27T05:12:10;2.75;;;1.83;;
34960;SDS011;30789;52.030;7.110;2023-02-27T05:14:38;3.47;;;1.77;;
34960;SDS011;30789;52.030;7.110;2023-02-27T05:17:06;4.38;;;1.83;;
34960;SDS011;30789;52.030;7.110;2023-02-27T05:19:33;1.80;;;1.45;;
34960;SDS011;30789;52.030;7.110;2023-02-27T05:22:04;3.83;;;1.98;;
34960;SDS011;30789;52.030;7.110;2023-02-27T05:24:36;7.25;;;1.88;;
34960;SDS011;30789;52.030;7.110;2023-02-27T05:27:21;8.63;;;1.77;;
34960;SDS011;30789;52.030;7.110;2023-02-27T05:29:48;5.10;;;2.03;;
34960;SDS011;30789;52.030;7.110;2023-02-27T05:32:18;6.55;;;1.98;;
34960;SDS011;30789;52.030;7.110;2023-02-27T05:34:48;2.17;;;1.88;;
34960;SDS011;30789;52.030;7.110;2023-02-27T05:37:17;5.68;;;2.25;;
34960;SDS011;30789;52.030;7.110;2023-02-27T05:39:45;3.20;;;1.33;;
34960;SDS011;30789;52.030;7.110;2023-02-27T05:42:13;3.13;;;1.58;;
34960;SDS011;30789;52.030;7.110;2023-02-27T05:44:44;2.45;;;1.65;;
34960;SDS011;30789;52.030;7.110;2023-02-27T05:47:12;3.50;;;1.88;;
34960;SDS011;30789;52.030;7.110;2023-02-27T05:49:43;2.25;;;1.90;;
34960;SDS011;30789;52.030;7.110;2023-02-27T05:52:10;6.18;;;2.40;;
34960;SDS011;30789;52.030;7.110;2023-02-27T05:54:40;6.00;;;2.45;;
34960;SDS011;30789;52.030;7.110;2023-02-27T05:57:08;9.00;;;3.42;;
34960;SDS011;30789;52.030;7.110;2023-02-27T05:59:36;5.85;;;3.67;;
34960;SDS011;30789;52.030;7.110;2023-02-27T06:02:08;5.20;;;2.45;;
34960;SDS011;30789;52.030;7.110;2023-02-27T06:04:35;4.55;;;2.28;;
34960;SDS011;30789;52.030;7.110;2023-02-27T06:07:01;7.95;;;2.13;;
34960;SDS011;30789;52.030;7.110;2023-02-27T06:09:29;2.20;;;1.40;;
34960;SDS011;30789;52.030;7.110;2023-02-27T06:11:55;4.78;;;2.30;;
34960;SDS011;30789;52.030;7.110;2023-02-27T06:14:21;3.55;;;2.20;;
34960;SDS011;30789;52.030;7.110;2023-02-27T06:16:47;5.43;;;1.83;;
34960;SDS011;30789;52.030;7.110;2023-02-27T06:19:15;2.42;;;2.17;;
34960;SDS011;30789;52.030;7.110;2023-02-27T06:21:41;6.65;;;2.10;;
34960;SDS011;30789;52.030;7.110;2023-02-27T06:24:07;4.53;;;2.08;;
34960;SDS011;30789;52.030;7.110;2023-02-27T06:26:34;2.47;;;1.77;;
34960;SDS011;30789;52.030;7.110;2023-02-27T06:29:01;2.03;;;1.90;;
34960;SDS011;30789;52.030;7.110;2023-02-27T06:31:27;3.35;;;2.17;;
34960;SDS011;30789;52.030;7.110;2023-02-27T06:33:53;3.92;;;1.98;;
34960;SDS011;30789;52.030;7.110;2023-02-27T06:36:21;3.55;;;2.10;;
34960;SDS011;30789;52.030;7.110;2023-02-27T06:38:48;2.72;;;2.17;;
34960;SDS011;30789;52.030;7.110;2023-02-27T06:41:14;4.03;;;2.55;;
34960;SDS011;30789;52.030;7.110;2023-02-27T06:43:40;3.45;;;2.25;;
34960;SDS011;30789;52.030;7.110;2023-02-27T06:46:06;4.35;;;2.15;;
34960;SDS011;30789;52.030;7.110;2023-02-27T06:48:33;3.97;;;2.45;;
34960;SDS011;30789;52.030;7.110;2023-02-27T06:50:59;4.90;;;2.58;;
34960;SDS011;30789;52.030;7.110;2023-02-27T06:53:27;5.35;;;2.63;;
34960;SDS011;30789;52.030;7.110;2023-02-27T06:55:53;3.75;;;2.35;;
34960;SDS011;30789;52.030;7.110;2023-02-27T06:58:19;2.92;;;2.13;;
34960;SDS011;30789;52.030;7.110;2023-02-27T07:00:46;5.28;;;2.38;;
34960;SDS011;30789;52.030;7.110;2023-02-27T07:03:12;3.15;;;2.28;;
34960;SDS011;30789;52.030;7.110;2023-02-27T07:05:39;4.57;;;2.65;;
34960;SDS011;30789;52.030;7.110;2023-02-27T07:08:05;3.78;;;2.70;;
34960;SDS011;30789;52.030;7.110;2023-02-27T07:10:32;7.47;;;2.80;;
34960;SDS011;30789;52.030;7.110;2023-02-27T07:12:59;7.00;;;3.15;;
34960;SDS011;30789;52.030;7.110;2023-02-27T07:15:25;7.28;;;2.60;;
34960;SDS011;30789;52.030;7.110;2023-02-27T07:17:51;7.13;;;2.47;;
34960;SDS011;30789;52.030;7.110;2023-02-27T07:20:18;3.22;;;2.38;;
34960;SDS011;30789;52.030;7.110;2023-02-27T07:22:44;5.18;;;2.80;;
34960;SDS011;30789;52.030;7.110;2023-02-27T07:25:11;3.78;;;2.22;;
34960;SDS011;30789;52.030;7.110;2023-02-27T07:27:38;3.67;;;2.15;;
34960;SDS011;30789;52.030;7.110;2023-02-27T07:30:05;2.63;;;2.25;;
34960;SDS011;30789;52.030;7.110;2023-02-27T07:32:31;4.43;;;1.98;;
34960;SDS011;30789;52.030;7.110;2023-02-27T07:34:58;5.32;;;2.45;;
34960;SDS011;30789;52.030;7.110;2023-02-27T07:37:25;3.78;;;2.35;;
34960;SDS011;30789;52.030;7.110;2023-02-27T07:39:51;3.22;;;2.63;;
34960;SDS011;30789;52.030;7.110;2023-02-27T07:42:17;3.00;;;1.98;;
34960;SDS011;30789;52.030;7.110;2023-02-27T07:44:45;2.40;;;2.20;;
34960;SDS011;30789;52.030;7.110;2023-02-27T07:47:11;2.90;;;2.38;;
34960;SDS011;30789;52.030;7.110;2023-02-27T07:49:37;2.50;;;2.30;;
34960;SDS011;30789;52.030;7.110;2023-02-27T07:52:04;3.03;;;1.90;;
34960;SDS011;30789;52.030;7.110;2023-02-27T07:54:31;2.30;;;2.10;;
34960;SDS011;30789;52.030;7.110;2023-02-27T07:56:57;4.15;;;2.20;;
34960;SDS011;30789;52.030;7.110;2023-02-27T07:59:24;4.80;;;2.60;;
34960;SDS011;30789;52.030;7.110;2023-02-27T08:01:51;3.60;;;2.67;;
34960;SDS011;30789;52.030;7.110;2023-02-27T08:04:18;7.95;;;3.78;;
34960;SDS011;30789;52.030;7.110;2023-02-27T08:06:44;4.95;;;2.53;;
34960;SDS011;30789;52.030;7.110;2023-02-27T08:09:10;3.85;;;3.25;;
34960;SDS011;30789;52.030;7.110;2023-02-27T08:11:36;5.40;;;3.17;;
34960;SDS011;30789;52.030;7.110;2023-02-27T08:14:03;4.22;;;2.97;;
34960;SDS011;30789;52.030;7.110;2023-02-27T08:16:29;4.32;;;2.35;;
34960;SDS011;30789;52.030;7.110;2023-02-27T08:18:57;3.45;;;2.63;;
34960;SDS011;30789;52.030;7.110;2023-02-27T08:21:23;4.07;;;2.97;;
34960;SDS011;30789;52.030;7.110;2023-02-27T08:23:50;4.45;;;2.63;;
34960;SDS011;30789;52.030;7.110;2023-02-27T08:26:16;6.38;;;3.05;;
34960;SDS011;30789;52.030;7.110;2023-02-27T08:28:42;3.60;;;2.65;;
34960;SDS011;30789;52.030;7.110;2023-02-27T08:31:09;4.60;;;2.40;;
34960;SDS011;30789;52.030;7.110;2023-02-27T08:33:35;3.88;;;3.00;;
34960;SDS011;30789;52.030;7.110;2023-02-27T08:36:03;3.58;;;2.85;;
34960;SDS011;30789;52.030;7.110;2023-02-27T08:38:29;5.50;;;2.90;;
34960;SDS011;30789;52.030;7.110;2023-02-27T08:40:56;7.45;;;3.13;;
34960;SDS011;30789;52.030;7.110;2023-02-27T08:43:22;8.93;;;3.20;;
34960;SDS011;30789;52.030;7.110;2023-02-27T08:45:48;6.25;;;3.00;;
34960;SDS011;30789;52.030;7.110;2023-02-27T08:48:15;4.65;;;2.55;;
34960;SDS011;30789;52.030;7.110;2023-02-27T08:50:42;5.50;;;2.78;;
34960;SDS011;30789;52.030;7.110;2023-02-27T08:53:10;6.35;;;2.67;;
34960;SDS011;30789;52.030;7.110;2023-02-27T08:55:37;2.80;;;2.40;;
34960;SDS011;30789;52.030;7.110;2023-02-27T08:58:03;4.10;;;2.38;;
34960;SDS011;30789;52.030;7.110;2023-02-27T09:00:30;3.95;;;2.25;;
34960;SDS011;30789;52.030;7.110;2023-02-27T09:02:56;4.63;;;2.13;;
34960;SDS011;30789;52.030;7.110;2023-02-27T09:05:22;4.53;;;2.35;;
34960;SDS011;30789;52.030;7.110;2023-02-27T09:07:49;3.55;;;2.40;;
34960;SDS011;30789;52.030;7.110;2023-02-27T09:10:17;5.35;;;2.45;;
34960;SDS011;30789;52.030;7.110;2023-02-27T09:12:43;5.05;;;2.70;;
34960;SDS011;30789;52.030;7.110;2023-02-27T09:15:10;3.05;;;2.20;;
34960;SDS011;30789;52.030;7.110;2023-02-27T09:17:36;5.88;;;2.42;;
34960;SDS011;30789;52.030;7.110;2023-02-27T09:20:03;2.28;;;1.98;;
34960;SDS011;30789;52.030;7.110;2023-02-27T09:22:33;3.40;;;2.33;;
34960;SDS011;30789;52.030;7.110;2023-02-27T09:24:59;3.60;;;2.08;;
34960;SDS011;30789;52.030;7.110;2023-02-27T09:27:27;4.97;;;2.28;;
34960;SDS011;30789;52.030;7.110;2023-02-27T09:29:53;4.43;;;1.92;;
34960;SDS011;30789;52.030;7.110;2023-02-27T09:32:20;6.47;;;2.20;;
34960;SDS011;30789;52.030;7.110;2023-02-27T09:34:46;8.98;;;1.90;;
34960;SDS011;30789;52.030;7.110;2023-02-27T09:37:13;3.20;;;2.10;;
34960;SDS011;30789;52.030;7.110;2023-02-27T09:39:39;6.45;;;2.33;;
34960;SDS011;30789;52.030;7.110;2023-02-27T09:42:06;4.63;;;2.10;;
34960;SDS011;30789;52.030;7.110;2023-02-27T09:44:37;6.15;;;2.08;;
34960;SDS011;30789;52.030;7.110;2023-02-27T09:47:05;3.00;;;1.90;;
34960;SDS011;30789;52.030;7.110;2023-02-27T09:49:35;5.72;;;1.70;;
34960;SDS011;30789;52.030;7.110;2023-02-27T09:52:07;5.13;;;1.90;;
34960;SDS011;30789;52.030;7.110;2023-02-27T09:54:35;4.75;;;1.88;;
34960;SDS011;30789;52.030;7.110;2023-02-27T09:57:02;3.15;;;1.40;;
34960;SDS011;30789;52.030;7.110;2023-02-27T09:59:30;4.35;;;1.85;;
34960;SDS011;30789;52.030;7.110;2023-02-27T10:02:01;7.90;;;1.85;;
34960;SDS011;30789;52.030;7.110;2023-02-27T10:04:34;4.00;;;1.52;;
34960;SDS011;30789;52.030;7.110;2023-02-27T10:07:05;5.05;;;1.50;;
34960;SDS011;30789;52.030;7.110;2023-02-27T10:09:36;3.50;;;1.85;;
34960;SDS011;30789;52.030;7.110;2023-02-27T10:12:11;2.58;;;1.45;;
34960;SDS011;30789;52.030;7.110;2023-02-27T10:14:40;3.72;;;1.83;;
34960;SDS011;30789;52.030;7.110;2023-02-27T10:17:12;4.45;;;1.60;;
34960;SDS011;30789;52.030;7.110;2023-02-27T10:19:40;3.08;;;1.67;;
34960;SDS011;30789;52.030;7.110;2023-02-27T10:22:09;5.80;;;1.58;;
34960;SDS011;30789;52.030;7.110;2023-02-27T10:24:38;5.85;;;1.63;;
34960;SDS011;30789;52.030;7.110;2023-02-27T10:27:05;2.00;;;1.00;;
34960;SDS011;30789;52.030;7.110;2023-02-27T10:29:38;4.57;;;1.40;;
34960;SDS011;30789;52.030;7.110;2023-02-27T10:32:06;4.22;;;1.70;;
34960;SDS011;30789;52.030;7.110;2023-02-27T10:34:37;1.42;;;0.90;;
34960;SDS011;30789;52.030;7.110;2023-02-27T10:37:04;3.30;;;1.90;;
34960;SDS011;30789;52.030;7.110;2023-02-27T10:39:34;6.22;;;1.45;;
34960;SDS011;30789;52.030;7.110;2023-02-27T10:42:02;3.40;;;0.90;;
34960;SDS011;30789;52.030;7.110;2023-02-27T10:44:30;1.20;;;1.10;;
34960;SDS011;30789;52.030;7.110;2023-02-27T10:46:57;4.25;;;1.00;;
34960;SDS011;30789;52.030;7.110;2023-02-27T10:49:23;2.53;;;1.00;;
34960;SDS011;30789;52.030;7.110;2023-02-27T10:52:04;3.83;;;0.90;;
34960;SDS011;30789;52.030;7.110;2023-02-27T10:54:31;2.97;;;0.88;;
34960;SDS011;30789;52.030;7.110;2023-02-27T10:56:59;3.15;;;1.10;;
34960;SDS011;30789;52.030;7.110;2023-02-27T10:59:27;5.80;;;0.95;;
34960;SDS011;30789;52.030;7.110;2023-02-27T11:01:54;1.48;;;1.00;;
34960;SDS011;30789;52.030;7.110;2023-02-27T11:07:06;2.95;;;1.35;;
34960;SDS011;30789;52.030;7.110;2023-02-27T11:09:34;3.95;;;1.40;;
34960;SDS011;30789;52.030;7.110;2023-02-27T11:12:11;4.25;;;1.20;;
34960;SDS011;30789;52.030;7.110;2023-02-27T11:14:46;3.03;;;1.10;;
34960;SDS011;30789;52.030;7.110;2023-02-27T11:17:19;2.95;;;1.00;;
34960;SDS011;30789;52.030;7.110;2023-02-27T11:19:46;2.45;;;1.02;;
34960;SDS011;30789;52.030;7.110;2023-02-27T11:22:15;1.23;;;1.00;;
34960;SDS011;30789;52.030;7.110;2023-02-27T11:24:42;4.47;;;1.08;;
34960;SDS011;30789;52.030;7.110;2023-02-27T11:27:16;1.60;;;1.00;;
34960;SDS011;30789;52.030;7.110;2023-02-27T11:29:54;1.92;;;1.13;;
34960;SDS011;30789;52.030;7.110;2023-02-27T11:32:20;1.48;;;1.00;;
34960;SDS011;30789;52.030;7.110;2023-02-27T11:34:49;1.75;;;1.05;;
34960;SDS011;30789;52.030;7.110;2023-02-27T11:37:20;3.35;;;1.33;;
34960;SDS011;30789;52.030;7.110;2023-02-27T11:39:49;3.17;;;1.20;;
34960;SDS011;30789;52.030;7.110;2023-02-27T11:42:17;1.80;;;1.02;;
34960;SDS011;30789;52.030;7.110;2023-02-27T11:44:53;3.10;;;1.10;;
34960;SDS011;30789;52.030;7.110;2023-02-27T11:47:22;4.53;;;1.38;;
34960;SDS011;30789;52.030;7.110;2023-02-27T11:52:32;4.90;;;1.65;;
34960;SDS011;30789;52.030;7.110;2023-02-27T11:55:01;3.63;;;1.20;;
34960;SDS011;30789;52.030;7.110;2023-02-27T11:57:29;1.42;;;1.10;;
34960;SDS011;30789;52.030;7.110;2023-02-27T11:59:56;1.85;;;1.23;;
34960;SDS011;30789;52.030;7.110;2023-02-27T12:02:24;4.28;;;1.27;;
34960;SDS011;30789;52.030;7.110;2023-02-27T12:04:54;2.92;;;1.17;;
34960;SDS011;30789;52.030;7.110;2023-02-27T12:07:23;4.57;;;1.40;;
34960;SDS011;30789;52.030;7.110;2023-02-27T12:09:54;4.63;;;1.50;;
34960;SDS011;30789;52.030;7.110;2023-02-27T12:12:23;2.85;;;1.50;;
34960;SDS011;30789;52.030;7.110;2023-02-27T12:14:53;3.15;;;1.13;;
34960;SDS011;30789;52.030;7.110;2023-02-27T12:17:22;2.40;;;1.00;;
34960;SDS011;30789;52.030;7.110;2023-02-27T12:19:57;6.65;;;2.25;;
34960;SDS011;30789;52.030;7.110;2023-02-27T12:22:25;1.85;;;1.17;;
34960;SDS011;30789;52.030;7.110;2023-02-27T12:24:56;3.42;;;1.23;;
34960;SDS011;30789;52.030;7.110;2023-02-27T12:27:24;0.98;;;0.80;;
34960;SDS011;30789;52.030;7.110;2023-02-27T12:29:52;3.88;;;1.67;;
34960;SDS011;30789;52.030;7.110;2023-02-27T12:32:21;2.10;;;1.27;;
34960;SDS011;30789;52.030;7.110;2023-02-27T12:34:48;2.95;;;1.42;;
34960;SDS011;30789;52.030;7.110;2023-02-27T12:37:18;2.33;;;1.65;;
34960;SDS011;30789;52.030;7.110;2023-02-27T12:39:47;2.03;;;1.20;;
34960;SDS011;30789;52.030;7.110;2023-02-27T12:42:25;2.05;;;0.98;;
34960;SDS011;30789;52.030;7.110;2023-02-27T12:45:00;6.80;;;1.83;;
34960;SDS011;30789;52.030;7.110;2023-02-27T12:47:31;2.60;;;1.52;;
34960;SDS011;30789;52.030;7.110;2023-02-27T12:50:02;3.40;;;1.17;;
34960;SDS011;30789;52.030;7.110;2023-02-27T12:52:33;2.33;;;1.02;;
34960;SDS011;30789;52.030;7.110;2023-02-27T12:55:05;2.47;;;0.88;;
34960;SDS011;30789;52.030;7.110;2023-02-27T12:57:38;1.75;;;0.90;;
34960;SDS011;30789;52.030;7.110;2023-02-27T13:00:09;3.67;;;1.08;;
34960;SDS011;30789;52.030;7.110;2023-02-27T13:02:43;4.07;;;1.00;;
34960;SDS011;30789;52.030;7.110;2023-02-27T13:05:19;3.20;;;1.00;;
34960;SDS011;30789;52.030;7.110;2023-02-27T13:07:49;2.25;;;1.10;;
34960;SDS011;30789;52.030;7.110;2023-02-27T13:10:17;0.90;;;0.70;;
34960;SDS011;30789;52.030;7.110;2023-02-27T13:12:47;1.23;;;0.80;;
34960;SDS011;30789;52.030;7.110;2023-02-27T13:15:17;5.88;;;1.42;;
34960;SDS011;30789;52.030;7.110;2023-02-27T13:17:45;2.17;;;0.95;;
34960;SDS011;30789;52.030;7.110;2023-02-27T13:20:21;3.58;;;1.15;;
34960;SDS011;30789;52.030;7.110;2023-02-27T13:22:50;2.38;;;1.10;;
34960;SDS011;30789;52.030;7.110;2023-02-27T13:25:19;2.35;;;1.00;;
34960;SDS011;30789;52.030;7.110;2023-02-27T13:27:48;2.88;;;1.30;;
34960;SDS011;30789;52.030;7.110;2023-02-27T13:30:18;5.22;;;1.20;;
34960;SDS011;30789;52.030;7.110;2023-02-27T13:32:47;2.85;;;0.90;;
34960;SDS011;30789;52.030;7.110;2023-02-27T13:35:21;1.25;;;0.70;;
34960;SDS011;30789;52.030;7.110;2023-02-27T13:37:48;1.27;;;0.90;;
34960;SDS011;30789;52.030;7.110;2023-02-27T13:40:25;2.33;;;1.15;;
34960;SDS011;30789;52.030;7.110;2023-02-27T13:42:54;1.77;;;1.05;;
34960;SDS011;30789;52.030;7.110;2023-02-27T13:48:02;2.90;;;1.88;;
34960;SDS011;30789;52.030;7.110;2023-02-27T13:50:47;2.47;;;1.00;;
34960;SDS011;30789;52.030;7.110;2023-02-27T13:53:16;6.88;;;1.20;;
34960;SDS011;30789;52.030;7.110;2023-02-27T13:55:43;1.75;;;1.30;;
34960;SDS011;30789;52.030;7.110;2023-02-27T13:58:14;1.35;;;0.95;;
34960;SDS011;30789;52.030;7.110;2023-02-27T14:00:41;2.25;;;1.00;;
34960;SDS011;30789;52.030;7.110;2023-02-27T14:03:08;3.30;;;1.25;;
34960;SDS011;30789;52.030;7.110;2023-02-27T14:05:42;2.83;;;1.10;;
34960;SDS011;30789;52.030;7.110;2023-02-27T14:08:12;1.92;;;1.13;;
34960;SDS011;30789;52.030;7.110;2023-02-27T14:10:39;1.40;;;0.95;;
34960;SDS011;30789;52.030;7.110;2023-02-27T14:15:57;2.10;;;1.20;;
34960;SDS011;30789;52.030;7.110;2023-02-27T14:21:09;2.75;;;1.13;;
34960;SDS011;30789;52.030;7.110;2023-02-27T14:23:36;4.25;;;1.55;;
34960;SDS011;30789;52.030;7.110;2023-02-27T14:26:04;3.03;;;1.02;;
34960;SDS011;30789;52.030;7.110;2023-02-27T14:28:36;4.75;;;1.40;;
34960;SDS011;30789;52.030;7.110;2023-02-27T14:31:11;2.33;;;1.25;;
34960;SDS011;30789;52.030;7.110;2023-02-27T14:33:44;1.73;;;1.02;;
34960;SDS011;30789;52.030;7.110;2023-02-27T14:36:14;4.60;;;0.98;;
34960;SDS011;30789;52.030;7.110;2023-02-27T14:38:40;2.08;;;1.05;;
34960;SDS011;30789;52.030;7.110;2023-02-27T14:41:14;4.07;;;1.10;;
34960;SDS011;30789;52.030;7.110;2023-02-27T14:43:43;2.50;;;1.08;;
34960;SDS011;30789;52.030;7.110;2023-02-27T14:46:13;2.63;;;1.10;;
34960;SDS011;30789;52.030;7.110;2023-02-27T14:48:41;1.73;;;1.02;;
34960;SDS011;30789;52.030;7.110;2023-02-27T14:51:07;1.15;;;1.00;;
34960;SDS011;30789;52.030;7.110;2023-02-27T14:53:33;2.03;;;1.02;;
34960;SDS011;30789;52.030;7.110;2023-02-27T14:56:00;2.95;;;1.85;;
34960;SDS011;30789;52.030;7.110;2023-02-27T14:58:26;3.42;;;2.67;;
34960;SDS011;30789;52.030;7.110;2023-02-27T15:00:57;2.58;;;1.33;;
34960;SDS011;30789;52.030;7.110;2023-02-27T15:03:28;4.20;;;1.35;;
34960;SDS011;30789;52.030;7.110;2023-02-27T15:05:56;2.30;;;1.15;;
34960;SDS011;30789;52.030;7.110;2023-02-27T15:08:25;2.47;;;1.00;;
34960;SDS011;30789;52.030;7.110;2023-02-27T15:10:53;8.15;;;1.85;;
34960;SDS011;30789;52.030;7.110;2023-02-27T15:13:20;1.88;;;1.38;;